Pancevo, Serbia
Current Conditions -  °F | °C
As of 11:30 PM on Friday 31 Oct 2014 (Local Time) from LYBE Reporting Station
Broken Clouds Broken Clouds  
Wind Chill: 46°   Ceiling: 3500
Heat Index: 46°   Visibility: 5mi
Dew Point: 41°   Wind: 3mph
Humidity: 81%   Direction: 230°SW
Pressure: 30.33"   Gusts: NA
Location:  44.87°N, 20.66°E
Report Text: LYBE 312130Z 23003KT 190V250 8000 BKN035 08/05 Q1027 NOSIG
Loading
Personal Weather Stations






























Interactive Weather Map
Tropical Storm Tracking
New forecast layout! Learn more

10-Day Weather Forecast

Advertisements
Track Severe Weather on mobile